Time;durP1;ratioP1;P1;durP2;ratioP2;P2;SDS_P1;SDS_P2;PMS_P1;PMS_P2;Temp;Humidity;BMP_temperature;BMP_pressure;BME280_temperature;BME280_humidity;BME280_pressure;Samples;Min_cycle;Max_cycle;Signal;HPM_P1;HPM_P2
2023/03/28 00:00:37;;;;;;;14.98;5.82;;;2.90;99.90;;;;;;5018920;28;20025;-93
2023/03/28 00:03:02;;;;;;;15.00;5.80;;;3.00;99.90;;;;;;5018756;28;20037;-94
2023/03/28 00:05:30;;;;;;;8.50;5.28;;;3.00;99.90;;;;;;5018533;28;20061;-94
2023/03/28 00:07:56;;;;;;;11.88;5.72;;;3.00;99.90;;;;;;5024807;28;20029;-94
2023/03/28 00:10:22;;;;;;;13.63;5.97;;;3.00;99.90;;;;;;5029004;28;20026;-94
2023/03/28 00:12:47;;;;;;;15.68;6.78;;;3.00;99.90;;;;;;5018287;28;20023;-94
2023/03/28 00:15:14;;;;;;;14.25;6.53;;;3.00;99.90;;;;;;5018549;28;20160;-93
2023/03/28 00:17:40;;;;;;;13.57;5.90;;;3.00;99.90;;;;;;5017289;28;20112;-94
2023/03/28 00:20:09;;;;;;;12.68;5.65;;;3.00;99.90;;;;;;5018166;28;20075;-94
2023/03/28 00:22:37;;;;;;;14.02;5.60;;;3.00;99.90;;;;;;5018593;28;20026;-94
2023/03/28 00:25:05;;;;;;;11.75;5.70;;;3.00;99.90;;;;;;5018607;28;20037;-95
2023/03/28 00:27:32;;;;;;;15.00;5.68;;;3.10;99.90;;;;;;5018733;28;20036;-94
2023/03/28 00:29:58;;;;;;;16.30;6.25;;;3.10;99.90;;;;;;5018393;28;20080;-94
2023/03/28 00:32:24;;;;;;;15.70;6.70;;;3.20;99.90;;;;;;5017300;28;20017;-96
2023/03/28 00:34:50;;;;;;;13.95;6.47;;;3.20;99.90;;;;;;5018108;28;20444;-94
2023/03/28 00:37:16;;;;;;;15.63;6.68;;;3.20;99.90;;;;;;5018602;28;20494;-94
2023/03/28 00:39:48;;;;;;;14.75;6.32;;;3.20;99.90;;;;;;5018530;28;20072;-93
2023/03/28 00:42:16;;;;;;;14.05;6.30;;;3.20;99.90;;;;;;5017855;28;20426;-93
2023/03/28 00:44:52;;;;;;;12.40;6.43;;;3.10;99.90;;;;;;5017923;28;20028;-93
2023/03/28 00:47:29;;;;;;;11.77;6.05;;;3.10;99.90;;;;;;5018052;28;20055;-94
2023/03/28 00:50:26;;;;;;;12.07;5.55;;;3.10;99.90;;;;;;5017871;28;20026;-93
2023/03/28 00:53:01;;;;;;;17.85;7.60;;;3.00;99.90;;;;;;5017027;28;20045;-93
2023/03/28 00:55:38;;;;;;;13.00;6.60;;;3.00;99.90;;;;;;5032689;28;20046;-93
2023/03/28 00:58:11;;;;;;;12.13;5.22;;;2.90;99.90;;;;;;5039957;28;20093;-94
2023/03/28 01:00:45;;;;;;;16.65;7.65;;;2.90;99.90;;;;;;5020930;28;20033;-93
2023/03/28 01:03:12;;;;;;;14.32;6.57;;;3.00;99.90;;;;;;5017162;28;20116;-93
2023/03/28 01:05:39;;;;;;;13.05;6.35;;;3.00;99.90;;;;;;5016763;28;20033;-93
2023/03/28 01:08:20;;;;;;;18.10;6.15;;;3.00;99.90;;;;;;5016784;28;20128;-95
2023/03/28 01:10:46;;;;;;;17.05;6.50;;;3.10;99.90;;;;;;5017016;28;20087;-93
2023/03/28 01:13:15;;;;;;;11.90;5.43;;;3.10;99.90;;;;;;5016358;28;20025;-93
2023/03/28 01:15:41;;;;;;;13.98;5.78;;;3.20;99.90;;;;;;5015916;28;20125;-93
2023/03/28 01:18:10;;;;;;;15.10;6.20;;;3.20;99.90;;;;;;5015523;28;20021;-93
2023/03/28 01:20:56;;;;;;;14.68;7.28;;;3.20;99.90;;;;;;5017139;28;20115;-93
2023/03/28 01:23:55;;;;;;;12.70;5.53;;;3.20;99.90;;;;;;5016906;28;20065;-94
2023/03/28 01:26:24;;;;;;;10.02;5.97;;;3.20;99.90;;;;;;5027331;28;20029;-94
2023/03/28 01:29:08;;;;;;;12.68;6.20;;;3.20;99.90;;;;;;5026394;28;20055;-94
2023/03/28 01:32:04;;;;;;;13.98;6.63;;;3.20;99.90;;;;;;5014907;28;20034;-94
2023/03/28 01:34:45;;;;;;;16.90;6.15;;;3.10;99.90;;;;;;4951728;29;20051;-94
2023/03/28 01:37:30;;;;;;;;;;;3.10;99.90;;;;;;4938633;29;20031;-94
2023/03/28 01:40:18;;;;;;;12.57;5.90;;;3.10;99.90;;;;;;4954209;29;19965;-94
2023/03/28 01:43:10;;;;;;;11.15;6.68;;;3.20;99.90;;;;;;4953725;29;20024;-94
2023/03/28 01:45:41;;;;;;;12.55;6.82;;;3.20;99.90;;;;;;4915349;29;20075;-94
2023/03/28 01:48:46;;;;;;;15.02;6.88;;;3.10;99.90;;;;;;4941259;29;20023;-94
2023/03/28 01:51:18;;;;;;;13.32;6.22;;;3.10;99.90;;;;;;4920504;29;20116;-95
2023/03/28 01:54:12;;;;;;;8.90;5.18;;;3.10;99.90;;;;;;4941757;29;20035;-95
2023/03/28 01:57:00;;;;;;;13.52;6.65;;;3.10;99.90;;;;;;4960103;28;20072;-94
2023/03/28 01:59:46;;;;;;;17.63;6.25;;;3.20;99.90;;;;;;4945929;29;20055;-94
2023/03/28 02:02:35;;;;;;;13.55;6.00;;;3.20;99.90;;;;;;4937106;29;20023;-94
2023/03/28 02:05:06;;;;;;;14.15;6.82;;;3.20;99.90;;;;;;4935838;29;20079;-95
2023/03/28 02:07:33;;;;;;;12.80;5.90;;;3.20;99.90;;;;;;4934757;29;20023;-94
2023/03/28 02:10:02;;;;;;;18.60;6.68;;;3.20;99.90;;;;;;4934104;29;20110;-94
2023/03/28 02:12:37;;;;;;;15.93;6.32;;;3.20;99.90;;;;;;4992266;28;20101;-94
2023/03/28 02:15:07;;;;;;;14.00;7.40;;;3.10;99.90;;;;;;5015966;28;20044;-93
2023/03/28 02:17:44;;;;;;;16.88;7.18;;;3.10;99.90;;;;;;5015821;28;20033;-94
2023/03/28 02:20:15;;;;;;;20.75;7.30;;;3.20;99.90;;;;;;5017794;28;20033;-94
2023/03/28 02:22:49;;;;;;;15.27;7.38;;;3.20;99.90;;;;;;5017949;28;20029;-94
2023/03/28 02:25:16;;;;;;;15.98;6.20;;;3.20;99.90;;;;;;5017536;28;20033;-94
2023/03/28 02:27:45;;;;;;;17.13;6.63;;;3.20;99.90;;;;;;5017394;28;20022;-94
2023/03/28 02:30:11;;;;;;;15.00;5.57;;;3.30;99.90;;;;;;5016604;28;20022;-94
2023/03/28 02:32:37;;;;;;;21.33;6.25;;;3.40;99.90;;;;;;5017217;28;20025;-94
2023/03/28 02:35:04;;;;;;;16.40;6.75;;;3.50;99.90;;;;;;5015785;28;20693;-94
2023/03/28 02:37:57;;;;;;;16.70;7.10;;;3.60;99.90;;;;;;5015629;28;20030;-94
2023/03/28 02:40:46;;;;;;;17.52;7.65;;;3.70;99.90;;;;;;5015348;28;20601;-94
2023/03/28 02:43:33;;;;;;;20.65;8.23;;;3.70;99.90;;;;;;5015223;28;20084;-94
2023/03/28 02:46:16;;;;;;;12.73;6.05;;;3.60;99.90;;;;;;5015083;28;20083;-93
2023/03/28 02:49:04;;;;;;;16.90;7.18;;;3.60;99.90;;;;;;5015878;28;20021;-93
2023/03/28 02:51:48;;;;;;;22.02;7.25;;;3.60;99.90;;;;;;5014983;28;20125;-94
2023/03/28 02:54:33;;;;;;;16.95;6.82;;;3.70;99.90;;;;;;5015176;28;20041;-92
2023/03/28 02:57:11;;;;;;;15.38;6.95;;;3.80;99.90;;;;;;5025331;28;20021;-93
2023/03/28 02:59:53;;;;;;;23.25;7.55;;;3.90;99.90;;;;;;5029649;28;20028;-93
2023/03/28 03:02:21;;;;;;;15.43;6.13;;;3.90;99.90;;;;;;5019023;28;20025;-94
2023/03/28 03:04:56;;;;;;;13.68;6.20;;;4.00;99.90;;;;;;5018742;28;20029;-93
2023/03/28 03:07:22;;;;;;;20.27;6.60;;;4.00;99.90;;;;;;5018402;28;20029;-93
2023/03/28 03:09:52;;;;;;;15.88;7.15;;;4.10;99.90;;;;;;5019042;28;20057;-93
2023/03/28 03:12:19;;;;;;;18.95;6.55;;;4.20;99.90;;;;;;5035960;28;20021;-93
2023/03/28 03:14:45;;;;;;;16.52;6.53;;;4.20;99.90;;;;;;5017887;28;20052;-92
2023/03/28 03:17:13;;;;;;;19.58;6.88;;;4.30;99.90;;;;;;5018113;28;20116;-93
2023/03/28 03:19:39;;;;;;;19.83;6.43;;;4.30;99.90;;;;;;5017790;28;20032;-93
2023/03/28 03:22:04;;;;;;;19.52;6.85;;;4.30;99.90;;;;;;5018127;28;20216;-93
2023/03/28 03:24:33;;;;;;;15.98;6.78;;;4.40;99.90;;;;;;5018168;28;20025;-93
2023/03/28 03:26:59;;;;;;;26.23;7.40;;;4.40;99.90;;;;;;5018162;28;20032;-94
2023/03/28 03:29:24;;;;;;;17.33;7.28;;;4.50;99.90;;;;;;5018391;28;20124;-93
2023/03/28 03:31:50;;;;;;;21.90;7.90;;;4.50;99.90;;;;;;5025915;28;20021;-93
2023/03/28 03:34:16;;;;;;;20.35;6.50;;;4.50;99.90;;;;;;5029348;28;20243;-94
2023/03/28 03:36:41;;;;;;;14.93;6.15;;;4.50;99.90;;;;;;5022358;28;20026;-93
2023/03/28 03:39:08;;;;;;;14.25;5.70;;;4.50;99.90;;;;;;5020476;28;20479;-92
2023/03/28 03:41:33;;;;;;;14.80;6.82;;;4.50;99.90;;;;;;5030943;28;20025;-93
2023/03/28 03:43:59;;;;;;;12.60;6.22;;;4.60;99.90;;;;;;5022771;28;20059;-93
2023/03/28 03:46:25;;;;;;;15.05;6.30;;;4.60;99.90;;;;;;5017847;28;20039;-92
2023/03/28 03:48:50;;;;;;;14.27;6.70;;;4.60;99.90;;;;;;5017497;28;20033;-93
2023/03/28 03:51:17;;;;;;;21.58;7.65;;;4.60;99.90;;;;;;5017729;28;20021;-92
2023/03/28 03:53:43;;;;;;;18.42;6.40;;;4.60;99.90;;;;;;5017504;28;20033;-92
2023/03/28 03:56:09;;;;;;;14.30;6.78;;;4.70;99.90;;;;;;5018352;28;20022;-93
2023/03/28 03:58:35;;;;;;;16.15;6.03;;;4.70;99.90;;;;;;5017287;28;20037;-95
2023/03/28 04:01:01;;;;;;;11.88;6.05;;;4.70;99.90;;;;;;5017025;28;20539;-95
2023/03/28 04:03:27;;;;;;;15.70;5.85;;;4.70;99.90;;;;;;5017323;28;20057;-95
2023/03/28 04:05:53;;;;;;;14.38;5.78;;;4.70;99.90;;;;;;5017188;28;20052;-94
2023/03/28 04:08:20;;;;;;;19.67;6.35;;;4.70;99.90;;;;;;5017875;28;20025;-95
2023/03/28 04:10:46;;;;;;;12.40;5.30;;;4.70;99.90;;;;;;5019047;28;20025;-93
2023/03/28 04:13:12;;;;;;;15.70;5.53;;;4.70;99.90;;;;;;5040284;28;20025;-93
2023/03/28 04:15:38;;;;;;;17.98;5.85;;;4.70;99.90;;;;;;5039995;28;20047;-93
2023/03/28 04:18:04;;;;;;;14.63;5.72;;;4.70;99.90;;;;;;5018719;28;20471;-93
2023/03/28 04:20:30;;;;;;;17.27;6.13;;;4.70;99.90;;;;;;5017235;28;20056;-94
2023/03/28 04:22:59;;;;;;;15.02;6.53;;;4.80;99.90;;;;;;5029107;28;20025;-93
2023/03/28 04:25:25;;;;;;;16.80;6.22;;;4.70;99.90;;;;;;5019703;28;20116;-93
2023/03/28 04:27:53;;;;;;;14.45;6.18;;;4.70;99.90;;;;;;5017152;28;20055;-93
2023/03/28 04:30:19;;;;;;;12.25;5.75;;;4.80;99.90;;;;;;5017730;28;20040;-92
2023/03/28 04:32:48;;;;;;;15.40;5.15;;;4.70;99.90;;;;;;5016538;28;20088;-93
2023/03/28 04:35:15;;;;;;;18.00;5.57;;;4.80;99.90;;;;;;5033068;28;20036;-93
2023/03/28 04:37:41;;;;;;;12.00;5.57;;;4.70;99.90;;;;;;5033167;28;20509;-93
2023/03/28 04:40:11;;;;;;;14.02;5.85;;;4.70;99.90;;;;;;5033393;28;20561;-93
2023/03/28 04:42:37;;;;;;;15.52;5.15;;;4.70;99.90;;;;;;5034127;28;20026;-95
2023/03/28 04:45:05;;;;;;;13.45;5.45;;;4.70;99.90;;;;;;5032644;28;20087;-93
2023/03/28 04:47:31;;;;;;;15.80;5.30;;;4.70;99.90;;;;;;5016427;28;20030;-94
2023/03/28 04:49:57;;;;;;;12.32;5.30;;;4.70;99.90;;;;;;5033093;28;20021;-93
2023/03/28 04:52:23;;;;;;;12.32;5.47;;;4.70;99.90;;;;;;5033241;28;20368;-93
2023/03/28 04:54:50;;;;;;;14.82;5.88;;;4.70;99.90;;;;;;5032745;28;20041;-93
2023/03/28 04:57:16;;;;;;;15.05;5.85;;;4.70;99.90;;;;;;5021111;28;20025;-93
2023/03/28 04:59:43;;;;;;;12.23;5.13;;;4.70;99.90;;;;;;5039628;28;20025;-93
2023/03/28 05:02:09;;;;;;;12.60;4.78;;;4.70;99.90;;;;;;5038451;28;20021;-92
2023/03/28 05:04:34;;;;;;;11.88;5.07;;;4.70;99.90;;;;;;5020697;28;20029;-92
2023/03/28 05:07:01;;;;;;;11.38;4.63;;;4.80;99.90;;;;;;5019020;28;20075;-93
2023/03/28 05:09:27;;;;;;;12.07;4.50;;;4.70;99.90;;;;;;5017113;28;20025;-93
2023/03/28 05:11:52;;;;;;;11.38;4.53;;;4.70;99.90;;;;;;5017245;28;20025;-93
2023/03/28 05:14:18;;;;;;;11.00;4.40;;;4.70;99.90;;;;;;5034577;28;20041;-93
2023/03/28 05:16:44;;;;;;;13.50;5.03;;;4.70;99.90;;;;;;5017024;28;20051;-94
2023/03/28 05:19:10;;;;;;;12.85;5.20;;;4.80;99.90;;;;;;5012179;28;20022;-93
2023/03/28 05:21:36;;;;;;;16.42;4.60;;;4.70;99.90;;;;;;4996963;28;20018;-93
2023/03/28 05:24:01;;;;;;;12.18;4.05;;;4.70;99.90;;;;;;4996561;28;20475;-93
2023/03/28 05:26:27;;;;;;;13.60;4.78;;;4.70;99.90;;;;;;5013404;28;20491;-93
2023/03/28 05:28:53;;;;;;;11.18;4.25;;;4.70;99.90;;;;;;4997090;28;20049;-93
2023/03/28 05:31:19;;;;;;;12.50;4.20;;;4.70;99.90;;;;;;4996714;28;20104;-93
2023/03/28 05:33:44;;;;;;;11.85;4.70;;;4.70;99.90;;;;;;4995450;28;20076;-93
2023/03/28 05:36:11;;;;;;;13.85;5.15;;;4.70;99.90;;;;;;4996586;28;20026;-93
2023/03/28 05:38:38;;;;;;;13.13;5.38;;;4.70;99.90;;;;;;4997027;28;20030;-94
2023/03/28 05:41:04;;;;;;;12.27;5.00;;;4.80;99.90;;;;;;4997344;28;20030;-94
2023/03/28 05:43:30;;;;;;;8.63;4.30;;;4.70;99.90;;;;;;5009926;28;20049;-93
2023/03/28 05:45:56;;;;;;;17.25;4.45;;;4.80;99.90;;;;;;5011352;28;20388;-93
2023/03/28 05:48:22;;;;;;;8.55;3.90;;;4.70;99.90;;;;;;4987203;28;20045;-93
2023/03/28 05:50:49;;;;;;;12.73;4.53;;;4.70;99.90;;;;;;5011109;28;20122;-92
2023/03/28 05:53:15;;;;;;;12.90;4.65;;;4.70;99.90;;;;;;4996525;28;20499;-93
2023/03/28 05:55:41;;;;;;;14.65;6.00;;;4.70;99.90;;;;;;4996348;28;20113;-93
2023/03/28 05:58:07;;;;;;;10.77;4.47;;;4.70;99.90;;;;;;4995865;28;20030;-93
2023/03/28 06:00:33;;;;;;;13.55;4.97;;;4.70;99.90;;;;;;5012624;28;20026;-92
2023/03/28 06:02:59;;;;;;;11.48;5.45;;;4.70;99.90;;;;;;4995895;28;20034;-93
2023/03/28 06:05:25;;;;;;;15.55;5.05;;;4.70;99.90;;;;;;5012160;28;20037;-92
2023/03/28 06:07:51;;;;;;;15.65;4.95;;;4.70;99.90;;;;;;4995621;28;20029;-93
2023/03/28 06:10:17;;;;;;;16.95;5.28;;;4.70;99.90;;;;;;5011963;28;20018;-93
2023/03/28 06:12:43;;;;;;;14.45;5.88;;;4.70;99.90;;;;;;4995582;28;20029;-93
2023/03/28 06:15:10;;;;;;;12.70;5.40;;;4.70;99.90;;;;;;4995097;28;20034;-92
2023/03/28 06:17:38;;;;;;;16.80;5.55;;;4.70;99.90;;;;;;5012303;28;20108;-94
2023/03/28 06:20:05;;;;;;;15.55;6.05;;;4.70;99.90;;;;;;5000650;28;20037;-93
2023/03/28 06:22:35;;;;;;;13.35;5.97;;;4.70;99.90;;;;;;5021464;28;20026;-92
2023/03/28 06:25:01;;;;;;;16.52;4.88;;;4.80;99.90;;;;;;5020103;28;20030;-92
2023/03/28 06:27:27;;;;;;;10.57;5.38;;;4.80;99.90;;;;;;5014542;28;20037;-92
2023/03/28 06:29:52;;;;;;;14.43;4.93;;;4.80;99.90;;;;;;5021610;28;20022;-92
2023/03/28 06:32:18;;;;;;;9.93;5.00;;;4.80;99.90;;;;;;5016921;28;20018;-92
2023/03/28 06:34:44;;;;;;;12.68;4.80;;;4.80;99.90;;;;;;5027674;28;20133;-93
2023/03/28 06:37:10;;;;;;;19.83;6.28;;;4.90;99.90;;;;;;5008955;28;20034;-92
2023/03/28 06:39:36;;;;;;;13.48;5.25;;;4.90;99.90;;;;;;5025711;28;20032;-92
2023/03/28 06:42:02;;;;;;;8.70;4.65;;;4.90;99.90;;;;;;5007291;28;20027;-92
2023/03/28 06:44:30;;;;;;;12.27;4.72;;;4.90;99.90;;;;;;5024777;28;20101;-92
2023/03/28 06:46:56;;;;;;;14.30;5.07;;;4.90;99.90;;;;;;5015397;28;20044;-93
2023/03/28 06:49:22;;;;;;;14.85;5.53;;;4.90;99.90;;;;;;5015421;28;20026;-93
2023/03/28 06:51:48;;;;;;;7.60;3.72;;;4.90;99.90;;;;;;5015249;28;20053;-92
2023/03/28 06:54:14;;;;;;;16.20;5.70;;;4.90;99.90;;;;;;4998783;28;20480;-91
2023/03/28 06:56:39;;;;;;;8.35;4.40;;;4.90;99.90;;;;;;5016227;28;20049;-92
2023/03/28 06:59:05;;;;;;;11.40;4.88;;;4.90;99.90;;;;;;5014554;28;20037;-93
2023/03/28 07:01:31;;;;;;;14.65;4.10;;;4.90;99.90;;;;;;5010186;28;20024;-94
2023/03/28 07:03:58;;;;;;;14.75;4.72;;;4.90;99.90;;;;;;5009288;28;20025;-93
2023/03/28 07:06:26;;;;;;;11.10;4.18;;;4.90;99.90;;;;;;5026402;28;20024;-91
2023/03/28 07:08:52;;;;;;;12.00;4.45;;;4.90;99.90;;;;;;5008668;28;20030;-93
2023/03/28 07:11:18;;;;;;;8.40;3.70;;;4.90;99.90;;;;;;5000327;28;20117;-93
2023/03/28 07:13:43;;;;;;;13.93;3.67;;;4.90;99.90;;;;;;5008208;28;20070;-92
2023/03/28 07:16:13;;;;;;;11.20;5.10;;;4.90;99.90;;;;;;5033072;28;20076;-93
2023/03/28 07:18:40;;;;;;;12.38;4.22;;;4.90;99.90;;;;;;5035080;28;20034;-93
2023/03/28 07:21:24;;;;;;;15.93;4.38;;;4.90;99.90;;;;;;5035236;28;20030;-94
2023/03/28 07:23:50;;;;;;;10.82;3.53;;;5.00;99.90;;;;;;5036570;28;20025;-94
2023/03/28 07:26:16;;;;;;;10.60;3.33;;;5.00;99.90;;;;;;5020144;28;20091;-95
2023/03/28 07:28:41;;;;;;;6.65;3.60;;;5.00;99.90;;;;;;5019098;28;20029;-95
2023/03/28 07:31:08;;;;;;;9.48;3.13;;;5.00;99.90;;;;;;5017885;28;20057;-95
2023/03/28 07:33:35;;;;;;;9.10;3.50;;;5.00;99.90;;;;;;5039922;28;20041;-95
2023/03/28 07:36:14;;;;;;;11.57;3.28;;;5.00;99.90;;;;;;5045086;28;20025;-94
2023/03/28 07:38:40;;;;;;;5.03;2.25;;;5.00;99.90;;;;;;5042986;28;20018;-94
2023/03/28 07:41:07;;;;;;;12.35;2.95;;;5.00;99.90;;;;;;5045926;28;20034;-93
2023/03/28 07:43:33;;;;;;;10.27;2.83;;;5.10;99.90;;;;;;5045816;28;20021;-93
2023/03/28 07:46:01;;;;;;;7.15;2.50;;;5.10;99.90;;;;;;5044189;28;20021;-92
2023/03/28 07:48:27;;;;;;;7.38;2.83;;;5.10;99.90;;;;;;5049444;28;20022;-95
2023/03/28 07:50:53;;;;;;;6.20;2.40;;;5.10;99.90;;;;;;5055029;28;20028;-94
2023/03/28 07:53:19;;;;;;;4.85;2.40;;;5.10;99.90;;;;;;5016525;28;20046;-96
2023/03/28 07:55:47;;;;;;;6.03;2.25;;;5.10;99.90;;;;;;4997834;28;20052;-93
2023/03/28 07:58:12;;;;;;;9.43;2.53;;;5.20;99.90;;;;;;5020802;28;20030;-94
2023/03/28 08:00:39;;;;;;;9.13;3.15;;;5.20;99.90;;;;;;5022554;28;20025;-94
2023/03/28 08:03:06;;;;;;;9.55;2.78;;;5.20;99.90;;;;;;5025139;28;20270;-94
2023/03/28 08:05:33;;;;;;;11.32;3.85;;;5.30;99.90;;;;;;5027730;28;20036;-94
2023/03/28 08:07:59;;;;;;;10.15;3.45;;;5.30;99.90;;;;;;5027736;28;20018;-94
2023/03/28 08:10:24;;;;;;;5.65;2.63;;;5.30;99.90;;;;;;5025032;28;20025;-95
2023/03/28 08:12:50;;;;;;;9.27;2.17;;;5.30;99.90;;;;;;5023691;28;20022;-94
2023/03/28 08:15:16;;;;;;;11.75;3.05;;;5.40;99.90;;;;;;5020790;28;20033;-95
2023/03/28 08:17:41;;;;;;;7.80;2.63;;;5.40;99.90;;;;;;5019997;28;20025;-95
2023/03/28 08:20:09;;;;;;;7.25;2.90;;;5.40;99.90;;;;;;5020483;28;20466;-95
2023/03/28 08:22:42;;;;;;;10.85;2.58;;;5.40;99.90;;;;;;5019758;28;20116;-94
2023/03/28 08:25:08;;;;;;;8.85;3.15;;;5.40;99.90;;;;;;5019117;28;20026;-94
2023/03/28 08:27:34;;;;;;;5.47;3.00;;;5.40;99.90;;;;;;5018473;28;20037;-95
2023/03/28 08:30:00;;;;;;;12.77;3.70;;;5.50;99.90;;;;;;5018875;28;20533;-94
2023/03/28 08:32:26;;;;;;;6.10;2.72;;;5.50;99.90;;;;;;5018474;28;20041;-93
2023/03/28 08:34:52;;;;;;;8.90;2.72;;;5.50;99.90;;;;;;5018382;28;20049;-95
2023/03/28 08:37:20;;;;;;;9.02;2.75;;;5.50;99.90;;;;;;5018423;28;20113;-94
2023/03/28 08:39:46;;;;;;;6.78;2.58;;;5.50;99.90;;;;;;5017425;28;20031;-95
2023/03/28 08:42:12;;;;;;;10.77;2.55;;;5.60;99.90;;;;;;5017674;28;20025;-94
2023/03/28 08:44:52;;;;;;;10.85;3.20;;;5.60;99.90;;;;;;5018051;28;20034;-92
2023/03/28 08:47:41;;;;;;;8.60;2.70;;;5.60;99.90;;;;;;5017529;28;20021;-94
2023/03/28 08:50:15;;;;;;;8.02;2.90;;;5.60;99.90;;;;;;5016864;28;20490;-94
2023/03/28 08:52:41;;;;;;;8.32;3.25;;;5.60;99.90;;;;;;5016938;28;20048;-93
2023/03/28 08:55:23;;;;;;;11.40;3.30;;;5.60;99.90;;;;;;5016131;28;20034;-94
2023/03/28 08:57:52;;;;;;;9.02;2.90;;;5.70;99.90;;;;;;5036122;28;20026;-92
2023/03/28 09:00:26;;;;;;;9.60;3.33;;;5.70;99.90;;;;;;5030681;28;20029;-95
2023/03/28 09:02:52;;;;;;;7.45;3.33;;;5.70;99.90;;;;;;5023035;28;20676;-95
2023/03/28 09:05:31;;;;;;;12.45;3.25;;;5.70;99.90;;;;;;5013394;28;20125;-95
2023/03/28 09:08:10;;;;;;;9.18;2.83;;;5.80;99.90;;;;;;5016996;28;20029;-94
2023/03/28 09:10:45;;;;;;;9.73;3.42;;;5.80;99.90;;;;;;5029259;28;20052;-93
2023/03/28 09:13:40;;;;;;;12.93;3.50;;;5.80;99.90;;;;;;5017369;28;20033;-94
2023/03/28 09:16:09;;;;;;;8.82;3.40;;;5.90;99.90;;;;;;4921231;29;20165;-93
2023/03/28 09:18:42;;;;;;;13.50;3.83;;;5.90;99.90;;;;;;4936683;29;20047;-91
2023/03/28 09:21:20;;;;;;;17.63;4.28;;;6.00;99.90;;;;;;4936219;29;20032;-93
2023/03/28 09:24:04;;;;;;;9.13;4.03;;;6.00;99.90;;;;;;4944680;29;20039;-94
2023/03/28 09:26:46;;;;;;;7.93;4.00;;;6.10;99.90;;;;;;4920654;29;20103;-95
2023/03/28 09:29:23;;;;;;;11.63;4.25;;;6.10;99.90;;;;;;4922066;29;20034;-93
2023/03/28 09:31:55;;;;;;;13.85;5.10;;;6.10;99.90;;;;;;4920513;29;20090;-92
2023/03/28 09:34:27;;;;;;;13.52;4.43;;;6.10;99.90;;;;;;4919284;29;20521;-92
2023/03/28 09:36:58;;;;;;;15.15;4.85;;;6.10;99.90;;;;;;4923422;29;20670;-93
2023/03/28 09:39:41;;;;;;;7.50;3.58;;;6.10;99.90;;;;;;4924297;29;20035;-92
2023/03/28 09:42:48;;;;;;;9.32;4.05;;;6.00;99.90;;;;;;4918473;29;20044;-93
2023/03/28 09:45:27;;;;;;;12.93;4.85;;;6.00;99.90;;;;;;4920491;29;20039;-92
2023/03/28 09:47:52;;;;;;;8.32;4.40;;;6.00;99.90;;;;;;4946707;29;20028;-91
2023/03/28 09:50:19;;;;;;;8.20;4.30;;;5.90;99.90;;;;;;4928964;29;20104;-93
2023/03/28 09:52:47;;;;;;;13.45;4.18;;;6.00;99.90;;;;;;4967413;28;20104;-93
2023/03/28 09:55:25;;;;;;;9.38;4.43;;;5.90;99.90;;;;;;5038127;28;20045;-94
2023/03/28 09:58:06;;;;;;;12.90;4.95;;;5.90;99.90;;;;;;5036313;28;20020;-94
2023/03/28 10:00:39;;;;;;;11.93;4.60;;;5.90;99.90;;;;;;5043718;28;20017;-93
2023/03/28 10:03:07;;;;;;;7.93;4.28;;;5.90;99.90;;;;;;5023050;28;20029;-93
2023/03/28 10:05:39;;;;;;;9.50;4.82;;;5.90;99.90;;;;;;5037218;28;20032;-93
2023/03/28 10:08:35;;;;;;;13.00;4.70;;;5.90;99.90;;;;;;5024717;28;20033;-94
2023/03/28 10:11:03;;;;;;;13.52;5.55;;;5.90;99.90;;;;;;5017709;28;20033;-93
2023/03/28 10:13:39;;;;;;;10.32;5.53;;;5.90;99.90;;;;;;5037037;28;20037;-93
2023/03/28 10:16:05;;;;;;;15.68;5.53;;;5.90;99.90;;;;;;5034228;28;20049;-94
2023/03/28 10:18:33;;;;;;;14.50;6.97;;;5.90;99.90;;;;;;5028381;28;20032;-92
2023/03/28 10:21:14;;;;;;;10.07;5.60;;;5.90;99.90;;;;;;5034155;28;20018;-93
2023/03/28 10:23:47;;;;;;;13.63;6.60;;;5.90;99.90;;;;;;5033519;28;20028;-94
2023/03/28 10:26:21;;;;;;;11.95;6.50;;;5.90;99.90;;;;;;5027103;28;20026;-94
2023/03/28 10:28:54;;;;;;;15.05;6.65;;;5.90;99.90;;;;;;5020347;28;20045;-94
2023/03/28 10:31:30;;;;;;;15.73;6.95;;;6.00;99.90;;;;;;5032377;28;20053;-94
2023/03/28 10:33:58;;;;;;;10.23;5.93;;;5.90;99.90;;;;;;5024887;28;20073;-93
2023/03/28 10:36:39;;;;;;;13.18;5.82;;;5.90;99.90;;;;;;5038795;28;20363;-94
2023/03/28 10:39:29;;;;;;;10.48;6.30;;;6.00;99.90;;;;;;5032848;28;20037;-94
2023/03/28 10:41:58;;;;;;;12.85;6.45;;;6.00;99.90;;;;;;5038069;28;20030;-93
2023/03/28 10:44:35;;;;;;;15.23;6.80;;;6.00;99.90;;;;;;5055993;28;20018;-93
2023/03/28 10:47:21;;;;;;;11.32;6.10;;;6.00;99.90;;;;;;5052637;28;20013;-95
2023/03/28 10:49:56;;;;;;;15.20;7.07;;;6.00;99.90;;;;;;5039423;28;20013;-93
2023/03/28 10:52:34;;;;;;;18.15;7.07;;;6.00;99.90;;;;;;5033838;28;20014;-93
2023/03/28 10:55:13;;;;;;;10.05;6.65;;;6.00;99.90;;;;;;5026392;28;20077;-95
2023/03/28 10:57:58;;;;;;;13.35;7.78;;;6.00;99.90;;;;;;5053776;28;20014;-94
2023/03/28 11:00:40;;;;;;;12.65;6.60;;;6.00;99.90;;;;;;5032489;28;20041;-94
2023/03/28 11:03:44;;;;;;;14.02;7.05;;;6.00;99.90;;;;;;5024786;28;20024;-95
2023/03/28 11:06:30;;;;;;;15.75;6.22;;;6.10;99.90;;;;;;5046481;28;20029;-94
2023/03/28 11:09:09;;;;;;;15.25;6.38;;;6.10;99.90;;;;;;5034233;28;20018;-95
2023/03/28 11:11:54;;;;;;;11.57;7.10;;;6.10;99.90;;;;;;5032783;28;20095;-94
2023/03/28 11:14:46;;;;;;;12.70;7.07;;;6.20;99.90;;;;;;5008626;28;20061;-94
2023/03/28 11:17:25;;;;;;;14.32;5.32;;;6.20;99.90;;;;;;5015224;28;20032;-93
2023/03/28 11:20:28;;;;;;;16.05;7.10;;;6.30;99.90;;;;;;5031236;28;20101;-95
2023/03/28 11:23:41;;;;;;;7.72;4.80;;;6.30;99.90;;;;;;5048523;28;20044;-95
2023/03/28 11:26:09;;;;;;;7.68;4.63;;;6.40;99.90;;;;;;5041041;28;20021;-93
2023/03/28 11:28:58;;;;;;;10.50;4.82;;;6.40;99.90;;;;;;5031307;28;20033;-94
2023/03/28 11:31:46;;;;;;;6.10;4.03;;;6.50;99.90;;;;;;5034827;28;20030;-95
2023/03/28 11:34:30;;;;;;;6.82;3.45;;;6.60;99.90;;;;;;5034371;28;20106;-94
2023/03/28 11:37:18;;;;;;;7.25;3.63;;;6.70;99.90;;;;;;5049104;28;20017;-93
2023/03/28 11:39:53;;;;;;;7.15;3.40;;;6.80;99.90;;;;;;5023929;28;20082;-93
2023/03/28 11:42:38;;;;;;;7.63;3.97;;;6.90;99.90;;;;;;5020278;28;20026;-93
2023/03/28 11:45:10;;;;;;;5.43;3.25;;;7.00;99.90;;;;;;5024428;28;20049;-94
2023/03/28 11:47:46;;;;;;;6.47;3.25;;;7.10;99.90;;;;;;5042077;28;20079;-92
2023/03/28 11:50:15;;;;;;;8.73;3.42;;;7.10;99.90;;;;;;5034583;28;20022;-95
2023/03/28 11:53:04;;;;;;;4.28;2.70;;;7.10;99.90;;;;;;5031283;28;20026;-92
2023/03/28 11:55:40;;;;;;;4.07;2.40;;;7.20;99.90;;;;;;5015073;28;20449;-92
2023/03/28 11:58:24;;;;;;;5.50;2.53;;;7.20;99.90;;;;;;5036147;28;20180;-94
2023/03/28 12:01:02;;;;;;;7.50;2.67;;;7.30;99.90;;;;;;5018825;28;20033;-93
2023/03/28 12:03:41;;;;;;;9.88;2.55;;;7.30;99.90;;;;;;5023520;28;20128;-93
2023/03/28 12:06:30;;;;;;;4.07;2.45;;;7.40;99.90;;;;;;5033872;28;20048;-93
2023/03/28 12:09:21;;;;;;;5.43;2.40;;;7.40;99.90;;;;;;5026331;28;20107;-94
2023/03/28 12:11:54;;;;;;;4.47;2.40;;;7.50;99.90;;;;;;5032445;28;20103;-93
2023/03/28 12:14:33;;;;;;;6.43;2.05;;;7.50;99.90;;;;;;5036795;28;20038;-95
2023/03/28 12:17:03;;;;;;;4.68;2.22;;;7.50;99.90;;;;;;5035394;28;20501;-94
2023/03/28 12:19:34;;;;;;;4.23;1.80;;;7.50;99.90;;;;;;5019715;28;20049;-93
2023/03/28 12:22:17;;;;;;;3.75;2.05;;;7.60;99.90;;;;;;5035319;28;20022;-94
2023/03/28 12:24:59;;;;;;;1.65;1.30;;;7.50;99.90;;;;;;5026853;28;20021;-94
2023/03/28 12:27:46;;;;;;;5.50;2.10;;;7.60;99.90;;;;;;5015835;28;20026;-94
2023/03/28 12:30:31;;;;;;;3.22;1.50;;;7.60;99.90;;;;;;5042352;28;20022;-93
2023/03/28 12:33:09;;;;;;;3.05;1.40;;;7.50;99.90;;;;;;5023890;28;20030;-95
2023/03/28 12:36:06;;;;;;;4.55;1.92;;;7.60;99.90;;;;;;5019486;28;20117;-94
2023/03/28 12:38:48;;;;;;;5.10;1.52;;;7.50;99.90;;;;;;5037973;28;20036;-94
2023/03/28 12:41:21;;;;;;;5.28;1.85;;;7.50;99.90;;;;;;5042908;28;20035;-94
2023/03/28 12:43:56;;;;;;;3.83;1.52;;;7.50;99.90;;;;;;5018339;28;20018;-94
2023/03/28 12:46:26;;;;;;;2.97;1.80;;;7.50;99.90;;;;;;5019440;28;20033;-95
2023/03/28 12:49:11;;;;;;;1.55;1.40;;;7.50;99.90;;;;;;5017204;28;20022;-93
2023/03/28 12:51:45;;;;;;;3.80;1.83;;;7.50;99.90;;;;;;5015846;28;20031;-94
2023/03/28 12:54:14;;;;;;;4.72;1.85;;;7.50;99.90;;;;;;5011717;28;20041;-95
2023/03/28 12:56:40;;;;;;;5.32;2.45;;;7.50;99.90;;;;;;5010628;28;20073;-94
2023/03/28 12:59:41;;;;;;;2.92;1.38;;;7.50;99.90;;;;;;5010856;28;20022;-94
2023/03/28 13:02:42;;;;;;;3.90;1.85;;;7.50;99.90;;;;;;5004172;28;20029;-95
2023/03/28 13:05:30;;;;;;;3.90;1.63;;;7.50;99.90;;;;;;5019000;28;20036;-95
2023/03/28 13:08:33;;;;;;;4.22;2.30;;;7.60;99.90;;;;;;5022136;28;20030;-94
2023/03/28 13:11:28;;;;;;;3.63;1.70;;;7.50;99.90;;;;;;5018207;28;20097;-94
2023/03/28 13:14:26;;;;;;;4.45;1.67;;;7.60;99.90;;;;;;4990066;28;20063;-94
2023/03/28 13:17:00;;;;;;;3.35;1.70;;;7.60;99.90;;;;;;5019904;28;20017;-95
2023/03/28 13:19:45;;;;;;;2.33;1.48;;;7.60;99.90;;;;;;5037938;28;20042;-95